createdAt,value
2022-12-23T00:01:22.976Z,52.17
2022-12-23T00:03:49.756Z,38.35
2022-12-23T00:06:17.786Z,44.08
2022-12-23T00:08:44.766Z,42.45
2022-12-23T00:11:14.985Z,40.80
2022-12-23T00:14:00.012Z,49.95
2022-12-23T00:16:26.527Z,34.88
2022-12-23T00:18:54.304Z,37.85
2022-12-23T00:21:21.540Z,40.25
2022-12-23T00:23:49.912Z,45.15
2022-12-23T00:26:19.479Z,44.30
2022-12-23T00:28:45.943Z,35.00
2022-12-23T00:31:13.410Z,43.10
2022-12-23T00:33:46.034Z,39.15
2022-12-23T00:36:13.089Z,40.50
2022-12-23T00:38:58.189Z,40.60
2022-12-23T00:41:43.312Z,34.83
2022-12-23T00:44:09.733Z,34.10
2022-12-23T00:46:36.134Z,35.42
2022-12-23T00:49:21.310Z,39.92
2022-12-23T00:51:47.769Z,43.20
2022-12-23T00:54:14.378Z,44.40
2022-12-23T00:56:40.808Z,44.05
2022-12-23T00:59:07.264Z,42.58
2022-12-23T01:01:52.443Z,43.78
2022-12-23T01:04:38.275Z,41.80
2022-12-23T01:07:05.490Z,38.38
2022-12-23T01:09:31.969Z,44.55
2022-12-23T01:11:58.574Z,41.03
2022-12-23T01:14:25.017Z,32.97
2022-12-23T01:16:51.479Z,34.10
2022-12-23T01:19:17.942Z,46.33
2022-12-23T01:21:44.452Z,34.58
2022-12-23T01:24:10.848Z,42.03
2022-12-23T01:26:37.232Z,41.10
2022-12-23T01:29:03.703Z,40.38
2022-12-23T01:31:30.264Z,38.03
2022-12-23T01:33:56.734Z,35.28
2022-12-23T01:36:23.478Z,42.35
2022-12-23T01:38:49.915Z,41.13
2022-12-23T01:41:59.418Z,44.83
2022-12-23T01:44:48.599Z,42.20
2022-12-23T01:47:24.111Z,41.33
2022-12-23T01:49:54.640Z,44.72
2022-12-23T01:52:21.357Z,43.45
2022-12-23T01:54:47.871Z,49.75
2022-12-23T01:57:14.308Z,50.95
2022-12-23T02:00:00.423Z,41.60
2022-12-23T02:02:47.039Z,41.83
2022-12-23T02:05:13.899Z,52.67
2022-12-23T02:07:59.011Z,45.92
2022-12-23T02:10:31.229Z,43.88
2022-12-23T02:13:02.009Z,47.63
2022-12-23T02:15:57.198Z,52.70
2022-12-23T02:18:42.219Z,52.55
2022-12-23T02:21:51.243Z,50.97
2022-12-23T02:24:17.903Z,51.55
2022-12-23T02:26:53.184Z,41.45
2022-12-23T02:29:22.508Z,53.05
2022-12-23T02:32:05.596Z,45.00
2022-12-23T02:34:54.695Z,60.45
2022-12-23T02:37:49.033Z,50.17
2022-12-23T02:40:48.728Z,42.83
2022-12-23T02:43:26.584Z,50.47
2022-12-23T02:45:59.257Z,53.15
2022-12-23T02:48:37.060Z,55.80
2022-12-23T02:51:04.148Z,40.78
2022-12-23T02:54:01.454Z,56.03
2022-12-23T02:56:29.672Z,53.75
2022-12-23T02:58:59.865Z,57.38
2022-12-23T03:01:27.595Z,48.55
2022-12-23T03:03:54.386Z,57.25
2022-12-23T03:06:40.850Z,52.72
2022-12-23T03:09:07.975Z,64.93
2022-12-23T03:11:51.302Z,51.83
2022-12-23T03:14:26.925Z,48.47
2022-12-23T03:17:00.831Z,64.03
2022-12-23T03:19:55.127Z,52.47
2022-12-23T03:22:28.634Z,51.45
2022-12-23T03:25:07.194Z,60.67
2022-12-23T03:27:42.697Z,53.03
2022-12-23T03:30:14.504Z,62.33
2022-12-23T03:32:51.593Z,57.10
2022-12-23T03:35:21.423Z,55.47
2022-12-23T03:37:49.558Z,73.68
2022-12-23T03:40:26.517Z,56.67
2022-12-23T03:42:57.953Z,56.38
2022-12-23T03:45:38.563Z,64.13
2022-12-23T03:48:20.181Z,63.88
2022-12-23T03:50:47.767Z,67.18
2022-12-23T03:53:21.756Z,64.13
2022-12-23T03:55:51.816Z,66.13
2022-12-23T03:58:19.300Z,56.57
2022-12-23T04:01:05.524Z,55.80
2022-12-23T04:03:37.754Z,64.15
2022-12-23T04:06:08.280Z,65.20
2022-12-23T04:08:39.126Z,64.03
2022-12-23T04:11:06.044Z,60.20
2022-12-23T04:13:32.562Z,72.32
2022-12-23T04:15:59.933Z,65.13
2022-12-23T04:18:26.745Z,50.72
2022-12-23T04:20:53.191Z,62.40
2022-12-23T04:23:19.587Z,63.45
2022-12-23T04:25:46.092Z,54.92
2022-12-23T04:28:12.494Z,67.57
2022-12-23T04:30:38.881Z,64.43
2022-12-23T04:33:05.358Z,70.10
2022-12-23T04:35:31.786Z,72.10
2022-12-23T04:37:58.354Z,78.07
2022-12-23T04:40:24.782Z,63.65
2022-12-23T04:42:51.214Z,70.68
2022-12-23T04:45:17.641Z,74.78
2022-12-23T04:47:44.079Z,71.60
2022-12-23T04:50:14.543Z,66.32
2022-12-23T04:52:41.369Z,68.05
2022-12-23T04:55:08.377Z,59.63
2022-12-23T04:57:35.051Z,59.45
2022-12-23T05:00:01.448Z,60.58
2022-12-23T05:02:28.107Z,67.68
2022-12-23T05:04:54.714Z,61.08
2022-12-23T05:07:21.306Z,64.03
2022-12-23T05:09:47.698Z,57.95
2022-12-23T05:12:14.159Z,63.08
2022-12-23T05:14:40.620Z,59.92
2022-12-23T05:17:07.965Z,63.30
2022-12-23T05:19:35.199Z,48.88
2022-12-23T05:22:01.610Z,61.00
2022-12-23T05:24:29.219Z,52.17
2022-12-23T05:27:00.112Z,49.58
2022-12-23T05:29:27.409Z,49.80
2022-12-23T05:31:53.941Z,43.75
2022-12-23T05:34:20.646Z,45.05
2022-12-23T05:36:47.034Z,43.45
2022-12-23T05:39:13.546Z,43.50
2022-12-23T05:41:39.969Z,42.88
2022-12-23T05:44:06.383Z,42.70
2022-12-23T05:46:32.843Z,47.67
2022-12-23T05:48:59.420Z,43.78
2022-12-23T05:51:25.810Z,45.30
2022-12-23T05:53:52.211Z,51.97
2022-12-23T05:56:18.723Z,45.88
2022-12-23T05:58:45.134Z,57.40
2022-12-23T06:01:11.638Z,58.75
2022-12-23T06:03:38.214Z,54.45
2022-12-23T06:06:05.122Z,56.13
2022-12-23T06:08:31.567Z,56.85
2022-12-23T06:10:59.964Z,54.35
2022-12-23T06:13:26.565Z,53.92
2022-12-23T06:15:53.002Z,49.20
2022-12-23T06:18:19.432Z,41.13
2022-12-23T06:20:47.406Z,48.60
2022-12-23T06:23:13.930Z,49.25
2022-12-23T06:25:40.323Z,45.15
2022-12-23T06:28:07.857Z,47.45
2022-12-23T06:30:34.807Z,48.90
2022-12-23T06:33:01.221Z,42.85
2022-12-23T06:35:27.644Z,48.63
2022-12-23T06:37:54.076Z,39.53
2022-12-23T06:40:20.491Z,44.08
2022-12-23T06:42:47.295Z,43.63
2022-12-23T06:45:13.793Z,43.38
2022-12-23T06:47:40.267Z,46.35
2022-12-23T06:50:07.101Z,39.83
2022-12-23T06:52:33.520Z,44.10
2022-12-23T06:54:59.923Z,46.30
2022-12-23T06:57:26.375Z,42.75
2022-12-23T06:59:52.778Z,43.80
2022-12-23T07:02:19.459Z,43.03
2022-12-23T07:04:46.331Z,47.88
2022-12-23T07:07:13.123Z,53.90
2022-12-23T07:09:39.616Z,50.53
2022-12-23T07:12:06.413Z,49.45
2022-12-23T07:14:32.776Z,57.60
2022-12-23T07:16:59.281Z,54.30
2022-12-23T07:19:25.730Z,60.47
2022-12-23T07:21:52.148Z,74.20
2022-12-23T07:24:18.684Z,68.60
2022-12-23T07:26:45.102Z,67.35
2022-12-23T07:29:11.520Z,61.22
2022-12-23T07:31:40.932Z,69.90
2022-12-23T07:34:07.875Z,61.45
2022-12-23T07:36:34.301Z,59.55
2022-12-23T07:39:00.785Z,59.03
2022-12-23T07:41:27.183Z,51.83
2022-12-23T07:43:53.588Z,59.72
2022-12-23T07:46:20.344Z,75.70
2022-12-23T07:48:46.820Z,86.63
2022-12-23T07:51:13.414Z,89.88
2022-12-23T07:53:39.893Z,89.35
2022-12-23T07:56:06.656Z,81.28
2022-12-23T07:58:33.076Z,91.82
2022-12-23T08:01:08.652Z,83.00
2022-12-23T08:03:35.494Z,80.38
2022-12-23T08:06:04.994Z,91.18
2022-12-23T08:08:32.107Z,95.68
2022-12-23T08:11:00.319Z,85.03
2022-12-23T08:13:27.354Z,93.80
2022-12-23T08:15:55.872Z,83.68
2022-12-23T08:18:22.481Z,89.13
2022-12-23T08:21:00.053Z,87.63
2022-12-23T08:23:27.637Z,84.28
2022-12-23T08:26:04.847Z,84.20
2022-12-23T08:28:31.753Z,98.45
2022-12-23T08:31:22.395Z,101.10
2022-12-23T08:33:51.777Z,82.28
2022-12-23T08:36:23.835Z,84.22
2022-12-23T08:38:52.308Z,86.45
2022-12-23T08:41:22.145Z,81.60
2022-12-23T08:43:48.849Z,71.15
2022-12-23T08:46:15.401Z,75.65
2022-12-23T08:48:48.698Z,75.25
2022-12-23T08:51:19.553Z,69.57
2022-12-23T08:53:46.431Z,75.18
2022-12-23T08:56:15.948Z,85.40
2022-12-23T08:58:45.472Z,68.25
2022-12-23T09:01:14.943Z,76.55
2022-12-23T09:03:42.234Z,76.57
2022-12-23T09:06:28.991Z,70.72
2022-12-23T09:08:56.325Z,77.28
2022-12-23T09:11:24.390Z,87.00
2022-12-23T09:13:51.277Z,75.75
2022-12-23T09:16:18.320Z,74.00
2022-12-23T09:18:45.001Z,79.28
2022-12-23T09:21:16.755Z,69.95
2022-12-23T09:23:43.216Z,71.30
2022-12-23T09:26:10.522Z,68.22
2022-12-23T09:28:37.341Z,68.78
2022-12-23T09:31:12.047Z,71.47
2022-12-23T09:33:39.033Z,70.85
2022-12-23T09:36:06.050Z,79.97
2022-12-23T09:38:33.005Z,71.47
2022-12-23T09:41:12.384Z,76.47
2022-12-23T09:43:48.677Z,78.70
2022-12-23T09:46:27.231Z,69.10
2022-12-23T09:48:59.586Z,81.00
2022-12-23T09:51:26.320Z,65.53
2022-12-23T09:53:59.388Z,71.75
2022-12-23T09:56:41.185Z,74.75
2022-12-23T09:59:27.383Z,71.68
2022-12-23T10:02:20.022Z,74.10
2022-12-23T10:04:57.356Z,73.82
2022-12-23T10:07:31.689Z,62.50
2022-12-23T10:09:59.815Z,64.95
2022-12-23T10:12:40.425Z,68.70
2022-12-23T10:15:18.669Z,62.55
2022-12-23T10:17:46.503Z,66.72
2022-12-23T10:20:18.314Z,59.67
2022-12-23T10:22:46.121Z,58.50
2022-12-23T10:25:20.438Z,58.38
2022-12-23T10:27:46.821Z,70.13
2022-12-23T10:30:42.399Z,57.35
2022-12-23T10:33:17.054Z,57.28
2022-12-23T10:35:53.476Z,54.70
2022-12-23T10:38:28.203Z,57.83
2022-12-23T10:40:57.253Z,52.75
2022-12-23T10:43:41.637Z,53.53
2022-12-23T10:46:19.552Z,51.53
2022-12-23T10:49:08.198Z,51.78
2022-12-23T10:51:48.924Z,48.35
2022-12-23T10:54:24.064Z,53.13
2022-12-23T10:56:50.449Z,57.17
2022-12-23T10:59:23.018Z,51.35
2022-12-23T11:01:54.920Z,45.88
2022-12-23T11:04:29.757Z,50.67
2022-12-23T11:07:26.460Z,62.58
2022-12-23T11:09:45.854Z,47.22
2022-12-23T11:12:13.115Z,50.25
2022-12-23T11:14:39.961Z,60.53
2022-12-23T11:17:35.968Z,56.00
2022-12-23T11:20:15.719Z,67.07
2022-12-23T11:22:49.545Z,57.60
2022-12-23T11:25:31.220Z,51.08
2022-12-23T11:28:03.368Z,54.63
2022-12-23T11:30:32.160Z,56.67
2022-12-23T11:32:58.675Z,51.33
2022-12-23T11:35:31.011Z,44.90
2022-12-23T11:37:58.972Z,45.80
2022-12-23T11:40:34.270Z,49.75
2022-12-23T11:43:13.609Z,50.38
2022-12-23T11:45:40.338Z,42.20
2022-12-23T11:48:27.200Z,47.05
2022-12-23T11:51:02.386Z,51.13
2022-12-23T11:53:28.892Z,38.55
2022-12-23T11:56:05.597Z,44.95
2022-12-23T11:58:48.378Z,41.42
2022-12-23T12:01:18.578Z,48.00
2022-12-23T12:03:48.921Z,45.05
2022-12-23T12:06:16.994Z,39.40
2022-12-23T12:08:43.454Z,37.15
2022-12-23T12:11:25.980Z,38.85
2022-12-23T12:13:58.597Z,36.20
2022-12-23T12:16:45.264Z,35.80
2022-12-23T12:19:33.430Z,34.42
2022-12-23T12:22:03.953Z,33.10
2022-12-23T12:24:36.525Z,28.52
2022-12-23T12:27:08.184Z,36.90
2022-12-23T12:29:51.371Z,32.80
2022-12-23T12:32:23.258Z,30.67
2022-12-23T12:34:52.529Z,34.95
2022-12-23T12:37:21.962Z,33.80
2022-12-23T12:40:14.648Z,41.88
2022-12-23T12:42:42.591Z,29.73
2022-12-23T12:45:21.054Z,34.83
2022-12-23T12:48:13.052Z,30.17
2022-12-23T12:50:54.881Z,34.33
2022-12-23T12:53:22.341Z,42.53
2022-12-23T12:55:53.307Z,37.58
2022-12-23T13:01:17.459Z,36.88
2022-12-23T13:04:04.920Z,39.83
2022-12-23T13:06:40.617Z,44.50
2022-12-23T13:09:27.920Z,35.38
2022-12-23T13:12:14.628Z,37.53
2022-12-23T13:15:04.831Z,39.60
2022-12-23T13:17:45.313Z,31.60
2022-12-23T13:20:34.424Z,31.38
2022-12-23T13:23:34.381Z,34.55
2022-12-23T13:26:19.211Z,35.42
2022-12-23T13:28:51.190Z,28.98
2022-12-23T13:31:28.678Z,33.42
2022-12-23T13:33:58.067Z,32.17
2022-12-23T13:36:28.973Z,34.72
2022-12-23T13:38:58.274Z,28.85
2022-12-23T13:41:40.536Z,34.90
2022-12-23T13:44:13.502Z,38.08
2022-12-23T13:46:50.076Z,21.60
2022-12-23T13:49:31.587Z,23.05
2022-12-23T13:52:12.002Z,23.30
2022-12-23T13:55:08.676Z,23.00
2022-12-23T13:57:57.201Z,20.42
2022-12-23T14:00:26.965Z,22.33
2022-12-23T14:03:00.640Z,22.67
2022-12-23T14:05:50.793Z,17.27
2022-12-23T14:08:20.438Z,22.02
2022-12-23T14:11:04.802Z,25.00
2022-12-23T14:13:41.213Z,22.58
2022-12-23T14:16:36.836Z,26.80
2022-12-23T14:19:09.188Z,25.42
2022-12-23T14:21:55.018Z,24.35
2022-12-23T14:24:59.192Z,26.77
2022-12-23T14:27:34.093Z,27.05
2022-12-23T14:30:08.237Z,30.25
2022-12-23T14:32:43.375Z,32.60
2022-12-23T14:35:19.375Z,31.90
2022-12-23T14:38:22.557Z,35.80
2022-12-23T14:40:52.900Z,32.88
2022-12-23T14:43:31.481Z,31.95
2022-12-23T14:46:04.815Z,34.63
2022-12-23T14:48:35.259Z,33.13
2022-12-23T14:51:13.585Z,35.13
2022-12-23T14:53:52.436Z,29.42
2022-12-23T14:56:18.783Z,53.10
2022-12-23T14:58:51.662Z,34.13
2022-12-23T15:01:34.560Z,28.58
2022-12-23T15:04:07.321Z,29.17
2022-12-23T15:06:43.054Z,31.95
2022-12-23T15:09:19.301Z,33.92
2022-12-23T15:11:45.934Z,29.17
2022-12-23T15:14:18.882Z,37.30
2022-12-23T15:16:46.411Z,32.13
2022-12-23T15:19:24.570Z,31.30
2022-12-23T15:22:00.319Z,31.40
2022-12-23T15:24:32.180Z,39.47
2022-12-23T15:27:25.153Z,40.53
2022-12-23T15:29:51.001Z,38.67
2022-12-23T15:32:19.063Z,32.80
2022-12-23T15:34:47.683Z,34.78
2022-12-23T15:37:22.254Z,35.88
2022-12-23T15:39:52.374Z,53.63
2022-12-23T15:42:27.565Z,24.95
2022-12-23T15:44:54.062Z,21.75
2022-12-23T15:47:30.080Z,24.33
2022-12-23T15:49:59.705Z,22.30
2022-12-23T15:52:27.643Z,31.38
2022-12-23T15:55:01.805Z,42.83
2022-12-23T15:57:28.868Z,33.25
2022-12-23T15:59:56.175Z,29.73
2022-12-23T16:05:32.239Z,30.80
2022-12-23T16:08:09.441Z,34.95
2022-12-23T16:10:36.345Z,36.42
2022-12-23T16:13:02.745Z,38.78
2022-12-23T16:15:31.909Z,35.90
2022-12-23T16:18:21.133Z,40.78
2022-12-23T16:20:51.060Z,42.10
2022-12-23T16:23:17.776Z,29.33
2022-12-23T16:25:50.857Z,32.60
2022-12-23T16:28:28.567Z,34.33
2022-12-23T16:30:57.265Z,37.53
2022-12-23T16:33:43.188Z,29.33
2022-12-23T16:36:15.926Z,36.60
2022-12-23T16:38:42.400Z,33.95
2022-12-23T16:41:08.845Z,30.38
2022-12-23T16:43:35.349Z,35.78
2022-12-23T16:46:01.927Z,29.48
2022-12-23T16:48:32.439Z,34.53
2022-12-23T16:51:00.150Z,35.10
2022-12-23T16:53:27.046Z,44.20
2022-12-23T16:55:58.499Z,34.55
2022-12-23T16:58:27.244Z,40.13
2022-12-23T17:00:53.880Z,37.38
2022-12-23T17:03:20.766Z,40.88
2022-12-23T17:05:48.053Z,40.75
2022-12-23T17:08:14.539Z,41.75
2022-12-23T17:10:41.621Z,42.50
2022-12-23T17:13:11.417Z,51.25
2022-12-23T17:15:38.025Z,50.13
2022-12-23T17:18:04.649Z,50.72
2022-12-23T17:20:31.295Z,45.55
2022-12-23T17:22:59.471Z,45.38
2022-12-23T17:25:26.671Z,45.00
2022-12-23T17:27:55.421Z,42.63
2022-12-23T17:30:24.158Z,39.08
2022-12-23T17:32:58.597Z,34.70
2022-12-23T17:35:25.808Z,35.63
2022-12-23T17:37:52.892Z,27.67
2022-12-23T17:40:19.863Z,27.70
2022-12-23T17:42:47.217Z,29.00
2022-12-23T17:45:26.733Z,34.63
2022-12-23T17:47:53.233Z,26.25
2022-12-23T17:50:20.085Z,27.17
2022-12-23T17:52:46.577Z,24.55
2022-12-23T17:55:22.968Z,31.45
2022-12-23T17:57:49.945Z,31.20
2022-12-23T18:00:25.305Z,29.55
2022-12-23T18:02:58.183Z,32.15
2022-12-23T18:05:25.962Z,39.17
2022-12-23T18:07:53.666Z,29.92
2022-12-23T18:10:26.114Z,30.23
2022-12-23T18:12:56.053Z,29.42
2022-12-23T18:15:30.230Z,28.90
2022-12-23T18:17:56.622Z,25.85
2022-12-23T18:20:23.998Z,30.15
2022-12-23T18:22:52.926Z,37.05
2022-12-23T18:25:24.930Z,27.42
2022-12-23T18:27:52.808Z,43.67
2022-12-23T18:30:19.901Z,23.27
2022-12-23T18:32:46.443Z,28.92
2022-12-23T18:35:18.774Z,34.40
2022-12-23T18:37:45.217Z,33.03
2022-12-23T18:40:11.859Z,32.08
2022-12-23T18:42:38.276Z,25.30
2022-12-23T18:45:20.232Z,30.33
2022-12-23T18:47:46.638Z,33.38
2022-12-23T18:50:13.031Z,28.85
2022-12-23T18:52:39.413Z,47.95
2022-12-23T18:55:06.558Z,26.70
2022-12-23T18:57:32.962Z,27.70
2022-12-23T18:59:59.405Z,33.13
2022-12-23T19:02:25.985Z,31.77
2022-12-23T19:04:52.414Z,39.30
2022-12-23T19:07:18.824Z,26.40
2022-12-23T19:09:45.203Z,27.50
2022-12-23T19:12:11.729Z,39.65
2022-12-23T19:14:39.341Z,46.83
2022-12-23T19:17:05.886Z,35.97
2022-12-23T19:19:32.309Z,31.80
2022-12-23T19:21:58.832Z,44.03
2022-12-23T19:24:25.231Z,37.25
2022-12-23T19:26:51.634Z,25.55
2022-12-23T19:29:18.084Z,48.15
2022-12-23T19:31:44.519Z,41.55
2022-12-23T19:34:15.012Z,30.98
2022-12-23T19:36:42.583Z,36.97
2022-12-23T19:39:15.770Z,33.92
2022-12-23T19:41:42.344Z,32.25
2022-12-23T19:44:08.753Z,26.35
2022-12-23T19:46:35.243Z,40.33
2022-12-23T19:49:01.704Z,32.55
2022-12-23T19:51:28.196Z,38.22
2022-12-23T19:53:54.598Z,46.78
2022-12-23T19:56:21.466Z,36.88
2022-12-23T19:58:49.053Z,42.75
2022-12-23T20:01:18.327Z,43.97
2022-12-23T20:03:45.947Z,40.15
2022-12-23T20:06:15.354Z,46.72
2022-12-23T20:08:43.558Z,34.45
2022-12-23T20:11:12.480Z,41.97
2022-12-23T20:13:39.012Z,37.65
2022-12-23T20:16:06.525Z,40.85
2022-12-23T20:18:33.219Z,37.72
2022-12-23T20:21:00.900Z,46.88
2022-12-23T20:23:28.542Z,39.60
2022-12-23T20:25:55.148Z,34.10
2022-12-23T20:28:21.818Z,45.35
2022-12-23T20:30:48.742Z,32.60
2022-12-23T20:33:15.699Z,19.48
2022-12-23T20:35:42.250Z,37.10
2022-12-23T20:38:08.667Z,30.20
2022-12-23T20:40:35.061Z,30.77
2022-12-23T20:43:01.453Z,27.33
2022-12-23T20:45:27.859Z,32.85
2022-12-23T20:47:54.351Z,29.77
2022-12-23T20:50:21.077Z,32.88
2022-12-23T20:52:47.787Z,35.05
2022-12-23T20:55:14.385Z,22.98
2022-12-23T20:57:40.866Z,32.25
2022-12-23T21:00:08.536Z,28.25
2022-12-23T21:02:35.101Z,25.70
2022-12-23T21:05:01.521Z,23.75
2022-12-23T21:07:28.693Z,31.27
2022-12-23T21:09:55.148Z,25.90
2022-12-23T21:12:21.729Z,16.65
2022-12-23T21:14:50.472Z,27.30
2022-12-23T21:17:16.911Z,23.73
2022-12-23T21:19:43.472Z,38.63
2022-12-23T21:22:09.871Z,32.42
2022-12-23T21:24:36.270Z,39.67
2022-12-23T21:27:02.756Z,26.52
2022-12-23T21:29:29.165Z,33.40
2022-12-23T21:31:55.875Z,42.95
2022-12-23T21:34:22.383Z,36.17
2022-12-23T21:36:48.957Z,26.40
2022-12-23T21:39:16.459Z,34.15
2022-12-23T21:41:43.154Z,32.40
2022-12-23T21:44:10.706Z,34.83
2022-12-23T21:46:37.138Z,43.15
2022-12-23T21:49:04.080Z,28.02
2022-12-23T21:51:39.688Z,39.22
2022-12-23T21:54:08.489Z,35.88
2022-12-23T21:56:34.994Z,28.58
2022-12-23T21:59:06.432Z,32.22
2022-12-23T22:01:33.398Z,42.53
2022-12-23T22:04:00.104Z,32.08
2022-12-23T22:06:38.268Z,30.85
2022-12-23T22:09:06.175Z,30.45
2022-12-23T22:11:34.995Z,28.63
2022-12-23T22:14:02.757Z,45.50
2022-12-23T22:16:30.510Z,22.83
2022-12-23T22:18:57.990Z,32.17
2022-12-23T22:21:26.378Z,26.35
2022-12-23T22:23:53.851Z,27.85
2022-12-23T22:26:25.652Z,21.75
2022-12-23T22:28:56.623Z,25.35
2022-12-23T22:31:32.102Z,34.45
2022-12-23T22:33:58.902Z,27.13
2022-12-23T22:36:25.808Z,27.98
2022-12-23T22:38:54.417Z,27.73
2022-12-23T22:41:21.401Z,37.00
2022-12-23T22:43:47.799Z,32.25
2022-12-23T22:46:14.549Z,38.70
2022-12-23T22:48:41.125Z,40.47
2022-12-23T22:51:22.051Z,20.40
2022-12-23T22:53:48.743Z,33.22
2022-12-23T22:56:16.953Z,43.30
2022-12-23T22:58:43.593Z,31.27
2022-12-23T23:01:24.942Z,32.85
2022-12-23T23:03:57.090Z,26.85
2022-12-23T23:06:34.554Z,35.67
2022-12-23T23:09:01.362Z,36.15
2022-12-23T23:11:28.531Z,36.17
2022-12-23T23:13:55.701Z,27.60
2022-12-23T23:16:22.882Z,22.75
2022-12-23T23:18:49.938Z,26.05
2022-12-23T23:21:16.703Z,30.48
2022-12-23T23:23:43.351Z,34.22
2022-12-23T23:26:10.258Z,45.00
2022-12-23T23:28:37.803Z,32.83
2022-12-23T23:31:39.739Z,33.38
2022-12-23T23:33:50.576Z,17.23
2022-12-23T23:36:16.990Z,31.88
2022-12-23T23:38:43.387Z,30.27
2022-12-23T23:41:09.800Z,23.63
2022-12-23T23:43:36.202Z,22.58
2022-12-23T23:46:02.713Z,29.20
2022-12-23T23:48:29.177Z,44.42
2022-12-23T23:51:05.962Z,27.63
2022-12-23T23:53:32.452Z,30.35
2022-12-23T23:56:06.324Z,18.17
2022-12-23T23:58:33.593Z,38.00
